Tiempo atmosférico en la estación meteorológica de Orozko, Bizkaia (270 m.)



Fecha
DESCASC
Temp. máxima en grados centígrados (hora)
DESCASC
Temp. mínima en grados centígrados (hora)
DESCASC
Temp. media en grados centígrados
DESCASC
Racha de viento máxima en m/sg (hora)
DESCASC
Velocidad máxima media en intervalos de 10 minutos(hora)
DESCASC
Precipitaciones diarias en mm
DESCASC
Precipitaciones de 00:00 a 06:00 en mm
DESCASC
Precipitaciones de 06:00 a 12:00 en mm
DESCASC
Precipitaciones de 12:00 a 18:00 en mm
DESCASC
Precipitaciones de 18:00 a 24:00 en mm
DESCASC
13-10-2019 30.2 (17:10) 13.4 (23:20) 21.8 11.67 (02:00) 3.89 (01:50) 0 0 0 0 0
12-10-2019 29.4 (17:30) 16.3 (01:50) 22.8 11.94 (18:00) 4.17 (22:50) 0 0 0 0 0
11-10-2019 30.3 (16:40) 9.2 (06:20) 19.7 6.94 (12:30) 2.5 (14:00) 0 0 0 0 0
10-10-2019 24.1 (16:50) 7.3 (00:00) 15.7 3.61 (19:20) 1.94 (19:50) 0 0 0 0 0
09-10-2019 19.4 (15:50) 9.8 (00:00) 14.6 5.83 (18:30) 2.22 (18:30) 2.6 2.4 0.2 0 0
08-10-2019 27.3 (16:50) 8.3 (00:00) 17.8 6.11 (17:40) 2.5 (17:30) 1 0 0 0 1
07-10-2019 26.4 (17:20) 8.3 (00:00) 17.3 4.44 (19:40) 2.78 (19:40) 0 0 0 0 0
06-10-2019 17.4 (13:00) 12.5 (00:00) 14.9 5.28 (18:00) 1.94 (18:00) 1.2 0 0 1.2 0
05-10-2019 22.6 (14:50) 13.7 (00:00) 18.2 3.89 (14:50) 1.67 (15:00) 0 0 0 0 0
04-10-2019 20.1 (14:50) 11.9 (00:00) 16 4.17 (15:00) 1.67 (12:20) 0.2 0 0.2 0 0
03-10-2019 24.9 (16:30) 9.5 (00:00) 17.2 5 (14:30) 2.5 (14:30) 0.2 0 0 0.2 0
02-10-2019 16.9 (00:00) 12.6 (00:00) 14.8 7.5 (00:50) 2.5 (00:50) 2.6 0 0.4 1 1.2
01-10-2019 22.7 (12:20) 13.3 (00:00) 18 6.11 (21:50) 2.22 (21:50) 0 0 0 0 0
30-09-2019 29.3 (16:50) 12.7 (00:00) 21 4.17 (21:30) 2.22 (19:40) 0 0 0 0 0
29-09-2019 31.8 (15:40) 11.3 (00:00) 21.5 7.22 (07:10) 2.78 (11:40) 0 0 0 0 0
28-09-2019 27.9 (17:40) 13.6 (00:00) 20.8 3.61 (15:40) 1.39 (13:20) 0 0 0 0 0
27-09-2019 25.9 (15:50) 12.5 (00:00) 19.2 4.72 (14:40) 2.5 (04:20) 0 0 0 0 0
26-09-2019 26.6 (16:10) 11.3 (00:00) 19 4.72 (18:00) 1.67 (15:20) 0 0 0 0 0
25-09-2019 23.1 (14:00) 11.8 (00:00) 17.5 4.17 (15:30) 1.67 (22:30) 0 0 0 0 0
24-09-2019 25.1 (13:40) 15.2 (00:00) 20.2 13.06 (02:30) 6.94 (02:30) 1.8 0 0 0 1.8
23-09-2019 23 (15:20) 10.6 (00:00) 16.8 8.33 (23:20) 2.78 (23:30) 0 0 0 0 0
22-09-2019 25.6 (16:20) 14.1 (00:00) 19.9 9.17 (00:10) 2.78 (00:10) 14 11.8 2.2 0 0
21-09-2019 26.7 (14:40) 15.8 (00:00) 21.3 13.61 (23:00) 6.11 (23:20) 0 0 0 0 0
20-09-2019 30 (16:10) 13.3 (00:00) 21.7 11.39 (12:20) 5.28 (13:30) 21.8 0 0 0 21.8
19-09-2019 26.4 (15:50) 14.1 (00:00) 20.3 4.44 (16:20) 1.94 (07:00) 0 0 0 0 0
18-09-2019 21.1 (14:50) 14.7 (00:00) 17.9 3.33 (02:10) 1.94 (01:50) 0.2 0 0 0.2 0
17-09-2019 29 (15:20) 15.9 (00:00) 22.4 4.72 (16:20) 1.67 (17:10) 0 0 0 0 0
16-09-2019 29.2 (15:40) 15.9 (00:00) 22.6 4.72 (16:00) 1.67 (18:40) 2 2 0 0 0

Gráficas

Temp. máximas Temp. mínimas Temp. medias Precipitaciones Rachas de viento máximas Velocidades máximas media en intervalos de 10 minutos

Datos horarios

Fecha y hora oficial Temperatura (ºC) Velocidad del viento (km/h) Dirección del viento Racha (km/h) Dirección de racha Precipitación (mm) Presión (hPa) Tendencia (hPa) Humedad (%)
2019-10-15 23:00:00 15.6 9 Sudoeste 35 Sudoeste 0 -- -- 53
2019-10-15 22:00:00 16.1 10 Oeste 38 Sudoeste 0 -- -- 47
2019-10-15 21:00:00 15.5 11 Sudoeste 28 Sudoeste 0 -- -- 49
2019-10-15 20:00:00 16.3 9 Sudoeste 27 Sudoeste 0 -- -- 48
2019-10-15 19:00:00 16.9 9 Sudoeste 21 Sudoeste 0 -- -- 46
2019-10-15 18:00:00 18.1 4 Noroeste 21 Norte 0 -- -- 41
2019-10-15 17:00:00 18.8 4 Nordeste 25 Oeste 0 -- -- 42
2019-10-15 16:00:00 18.9 6 Oeste 24 Oeste 0 -- -- 40
2019-10-15 15:00:00 19 5 Noroeste 25 Noroeste 0 -- -- 42
2019-10-15 14:00:00 18.7 6 Oeste 24 Norte 0 -- -- 42
2019-10-15 13:00:00 17.3 8 Noroeste 29 Oeste 0 -- -- 45
2019-10-15 12:00:00 15.9 10 Noroeste 28 Oeste 0 -- -- 48
2019-10-15 11:00:00 13.5 5 Oeste 24 Oeste 0 -- -- 56
2019-10-15 10:00:00 8.7 4 Este 24 Noroeste 0 -- -- 92
2019-10-15 09:00:00 6.8 3 Este 13 Sudeste 0 -- -- 98
2019-10-15 08:00:00 6.7 3 Este 10 Este 0 -- -- 98
2019-10-15 07:00:00 6.5 3 Sudeste 8 Sur 0 -- -- 97
2019-10-15 06:00:00 6.4 0 Calma 6 Sudeste 0 -- -- 96
2019-10-15 05:00:00 7.1 3 Sur 10 Sudeste 0 -- -- 95
2019-10-15 04:00:00 7.8 3 Sur 8 Sudeste 0 -- -- 93
2019-10-15 03:00:00 9.2 3 Sudeste 9 Sudoeste 0.2 -- -- 93
2019-10-15 02:00:00 10 3 Sur 8 Sur 0.2 -- -- 95
2019-10-15 01:00:00 10.2 0 Calma -- -- 0 -- -- 95
2019-10-15 00:00:00 10.4 0 Calma 8 Sudoeste 0 -- -- 94
2019-10-14 23:00:00 10.7 0 Calma 15 Nordeste 1 -- -- 91
2019-10-14 22:00:00 11.7 11 Noroeste 36 Norte 0.6 -- -- 82
2019-10-14 21:00:00 14.2 4 Sur 14 Noroeste 0 -- -- 75
2019-10-14 20:00:00 15.7 8 Oeste 17 Sur 0 -- -- 56
2019-10-14 19:00:00 16.7 10 Oeste 43 Norte 0 -- -- 52
2019-10-14 18:00:00 19.4 9 Nordeste 24 Nordeste 0 -- -- 43
2019-10-14 17:00:00 20.8 5 Nordeste 28 Norte 0 -- -- 40
2019-10-14 16:00:00 22.6 7 Norte 31 Norte 0 -- -- 36
2019-10-14 15:00:00 22.7 8 Nordeste 31 Nordeste 0 -- -- 43
2019-10-14 14:00:00 20 7 Norte 29 Norte 0 -- -- 56
2019-10-14 13:00:00 17.2 5 Nordeste 20 Oeste 0.6 -- -- 88
2019-10-14 12:00:00 18.5 5 Norte 35 Noroeste 0 -- -- 75
2019-10-14 11:00:00 19.6 4 Nordeste 21 Sudeste 0 -- -- 70
2019-10-14 10:00:00 18.2 6 Nordeste 17 Norte 0 -- -- 75
2019-10-14 09:00:00 19.6 6 Este 22 Este 0 -- -- 66
2019-10-14 08:00:00 21.4 7 Oeste 38 Sudoeste 0 -- -- 51
2019-10-14 07:00:00 22.2 13 Sudoeste 37 Sudoeste 0 -- -- 46
2019-10-14 06:00:00 22 17 Sudoeste 36 Sudoeste 0 -- -- 49
2019-10-14 05:00:00 22 17 Sudoeste 42 Sudoeste 0 -- -- 49
2019-10-14 04:00:00 21.2 9 Oeste 32 Sur 0 -- -- 49
2019-10-14 03:00:00 19 5 Sudoeste 17 Sur 0 -- -- 50
2019-10-14 02:00:00 19.7 4 Oeste 18 Oeste 0 -- -- 45
2019-10-14 01:00:00 16.1 4 Sudeste 13 Oeste 0 -- -- 63
2019-10-14 00:00:00 14.9 4 Oeste 11 Sudoeste 0 -- -- 72
2019-10-13 23:00:00 13.6 3 Este 9 Sudoeste 0 -- -- 87
2019-10-13 22:00:00 14.9 2 Sur 10 Sur 0 -- -- 81
2019-10-13 21:00:00 17.1 4 Sudoeste 15 Sur 0 -- -- 74
2019-10-13 20:00:00 20.2 0 Calma 15 Sudoeste 0 -- -- 62
2019-10-13 19:00:00 24.4 3 Sudoeste 16 Sur 0 -- -- 48
2019-10-13 18:00:00 26.9 6 Sudoeste 15 Nordeste 0 -- -- 42
2019-10-13 17:00:00 29.9 5 Nordeste 29 Norte 0 -- -- 31
2019-10-13 16:00:00 29.7 9 Nordeste 27 Norte 0 -- -- 30
2019-10-13 15:00:00 27.2 3 Sudeste 28 Sudoeste 0 -- -- 42
2019-10-13 14:00:00 24 8 Sur 22 Oeste 0 -- -- 51
2019-10-13 13:00:00 22.9 5 Sudeste 24 Sur 0 -- -- 54
2019-10-13 12:00:00 22.5 5 Oeste 22 Sudoeste 0 -- -- 52
2019-10-13 11:00:00 22.4 6 Sur 27 Oeste 0 -- -- 54
2019-10-13 10:00:00 22.4 5 Noroeste 26 Sudoeste 0 -- -- 47
2019-10-13 09:00:00 22.3 9 Sudoeste 31 Oeste 0 -- -- 46
2019-10-13 08:00:00 22.4 7 Noroeste 23 Sudoeste 0 -- -- 45
2019-10-13 07:00:00 22.2 10 Oeste 25 Sudoeste 0 -- -- 45
2019-10-13 06:00:00 22 8 Oeste 26 Oeste 0 -- -- 46
2019-10-13 05:00:00 22.6 4 Sudeste 30 Oeste 0 -- -- 44
2019-10-13 04:00:00 23.2 9 Oeste 29 Noroeste 0 -- -- 44
2019-10-13 03:00:00 23 9 Oeste 35 Sur 0 -- -- 46
2019-10-13 02:00:00 23.3 13 Sudoeste 42 Sudoeste 0 -- -- 48
2019-10-13 01:00:00 23.7 8 Oeste 32 Sudoeste 0 -- -- 46
2019-10-13 00:00:00 23.7 5 Noroeste 31 Oeste 0 -- -- 48
2019-10-12 23:00:00 24 10 Sudoeste 41 Sur 0 -- -- 46
2019-10-12 22:00:00 21.3 6 Sur 16 Sur 0 -- -- 57
2019-10-12 21:00:00 23.8 4 Este 41 Norte 0 -- -- 49
2019-10-12 20:00:00 25.3 9 Sudoeste 32 Sudoeste 0 -- -- 44
2019-10-12 19:00:00 27 10 Sudoeste 34 Sudoeste 0 -- -- 43
2019-10-12 18:00:00 29 15 Sudoeste 43 Sur 0 -- -- 40
2019-10-12 17:00:00 27.9 10 Sudoeste 31 Sur 0 -- -- 44
2019-10-12 16:00:00 28.6 8 Sudoeste 27 Sudoeste 0 -- -- 40
2019-10-12 15:00:00 28.2 14 Sudoeste 31 Sur 0 -- -- 40
2019-10-12 14:00:00 25.6 3 Norte 15 Nordeste 0 -- -- 52
2019-10-12 13:00:00 23.6 4 Nordeste 26 Sur 0 -- -- 55
2019-10-12 12:00:00 22.9 5 Sudoeste 15 Oeste 0 -- -- 56
2019-10-12 11:00:00 23.2 5 Noroeste 28 Sudoeste 0 -- -- 61
2019-10-12 10:00:00 22 10 Sudoeste 31 Sudoeste 0 -- -- 59
2019-10-12 09:00:00 20.4 7 Noroeste 23 Oeste 0 -- -- 70
2019-10-12 08:00:00 19.1 4 Este 16 Norte 0 -- -- 76
2019-10-12 07:00:00 19.5 3 Nordeste 16 Norte 0 -- -- 74
2019-10-12 06:00:00 21.5 6 Noroeste 22 Sudoeste 0 -- -- 64
2019-10-12 05:00:00 18.4 4 Sur 15 Oeste 0 -- -- 78
2019-10-12 04:00:00 17.7 3 Nordeste 10 Norte 0 -- -- 82
2019-10-12 03:00:00 16.7 5 Este 12 Este 0 -- -- 87
2019-10-12 02:00:00 16.4 5 Nordeste 15 Noroeste 0 -- -- 89
2019-10-12 01:00:00 16.6 2 Sudoeste 14 Sudoeste 0 -- -- 86
2019-10-12 00:00:00 16.7 3 Sudeste 9 Sudoeste 0 -- -- 85
2019-10-11 23:00:00 16.9 3 Sur 10 Sur 0 -- -- 83
2019-10-11 22:00:00 17.3 0 Calma 6 Sudoeste 0 -- -- 79
2019-10-11 21:00:00 18.5 3 Sudoeste 7 Sudoeste 0 -- -- 73
2019-10-11 20:00:00 20.5 0 Calma 12 Sur 0 -- -- 66
2019-10-11 19:00:00 24.5 5 Sudoeste 17 Sudoeste 0 -- -- 52
2019-10-11 18:00:00 28.1 7 Oeste 16 Oeste 0 -- -- 44
2019-10-11 17:00:00 29.9 4 Oeste 14 Oeste 0 -- -- 36
2019-10-11 16:00:00 29.5 4 Nordeste 10 Oeste 0 -- -- 37
2019-10-11 15:00:00 28.1 4 Nordeste 20 Sudoeste 0 -- -- 39
2019-10-11 14:00:00 26.4 9 Oeste 24 Sudoeste 0 -- -- 40
2019-10-11 13:00:00 24.7 6 Norte 25 Oeste 0 -- -- 48
2019-10-11 12:00:00 21.3 0 Calma 7 Noroeste 0 -- -- 59
2019-10-11 11:00:00 16.1 0 Calma 8 Sur 0 -- -- 85
2019-10-11 10:00:00 11.3 4 Sur 10 Sudoeste 0 -- -- 97
2019-10-11 09:00:00 10.1 4 Sur 10 Sudoeste 0 -- -- 97
2019-10-11 08:00:00 9.6 5 Sur 10 Sudoeste 0 -- -- 97
2019-10-11 07:00:00 9.4 3 Sudeste 9 Sur 0 -- -- 97
2019-10-11 06:00:00 9.4 3 Sur 8 Sudoeste 0 -- -- 97
2019-10-11 05:00:00 9.5 3 Sur 7 Sur 0 -- -- 97
2019-10-11 04:00:00 9.8 3 Sudoeste 7 Sur 0 -- -- 97
2019-10-11 03:00:00 9.7 4 Sur 8 Sur 0 -- -- 96
2019-10-11 02:00:00 9.8 0 Calma 7 Sudoeste 0 -- -- 95
2019-10-11 01:00:00 10 2 Sur 9 Sudoeste 0 -- -- 94
2019-10-11 00:00:00 10.3 0 Calma 6 Sur 0 -- -- 93
2019-10-10 23:00:00 10.9 2 Sur 7 Sudoeste 0 -- -- 91
2019-10-10 22:00:00 11.8 0 Calma 6 Sudoeste 0 -- -- 88
2019-10-10 21:00:00 13.2 0 Calma 12 Sur 0 -- -- 84
2019-10-10 20:00:00 14.9 6 Sudoeste 13 Sur 0 -- -- 80
2019-10-10 19:00:00 18.6 5 Sudoeste 12 Este 0 -- -- 66
2019-10-10 18:00:00 23.5 4 Este 12 Sudeste 0 -- -- 50
2019-10-10 17:00:00 24 3 Este 9 Este 0 -- -- 44
2019-10-10 16:00:00 23.6 3 Sudeste 10 Sur 0 -- -- 47
2019-10-10 15:00:00 22.3 0 Calma 10 Sudoeste 0 -- -- 50
2019-10-10 14:00:00 21.7 2 Sudeste 10 Sudeste 0 -- -- 50
2019-10-10 13:00:00 20.2 3 Este 9 Sudeste 0 -- -- 56
2019-10-10 12:00:00 16.9 0 Calma -- -- 0 -- -- 68
2019-10-10 11:00:00 12.6 0 Calma 6 Oeste 0 -- -- 100
2019-10-10 10:00:00 8.6 0 Calma -- -- 0 -- -- 100
2019-10-10 09:00:00 7.3 0 Calma -- -- 0 -- -- 98
2019-10-10 08:00:00 7.4 0 Calma -- -- 0 -- -- 98
2019-10-10 07:00:00 7.6 0 Calma -- -- 0 -- -- 98
2019-10-10 06:00:00 7.7 0 Calma -- -- 0 -- -- 97
2019-10-10 05:00:00 7.9 0 Calma 0 Calma 0 -- -- 97
2019-10-10 04:00:00 8.1 0 Calma -- -- 0 -- -- 96
2019-10-10 03:00:00 8.4 0 Calma -- -- 0 -- -- 96
2019-10-10 02:00:00 8.9 0 Calma -- -- 0 -- -- 95
2019-10-10 01:00:00 9.4 0 Calma -- -- 0 -- -- 94
2019-10-10 00:00:00 9.8 0 Calma 8 Sudoeste 0 -- -- 93
2019-10-09 23:00:00 10.5 0 Calma 9 Sur 0 -- -- 92
2019-10-09 22:00:00 11.4 2 Sur 8 Sudeste 0 -- -- 90
2019-10-09 21:00:00 12.7 0 Calma 11 Sur 0 -- -- 87
2019-10-09 20:00:00 14.2 4 Sur 13 Sur 0 -- -- 81
2019-10-09 19:00:00 17.6 3 Sudeste 21 Sudeste 0 -- -- 63
2019-10-09 18:00:00 18.6 5 Sur 19 Este 0 -- -- 63
2019-10-09 17:00:00 18 4 Sudeste 14 Sudeste 0 -- -- 62
2019-10-09 16:00:00 18.9 4 Sudeste 16 Este 0 -- -- 64
2019-10-09 15:00:00 18.5 5 Sudeste 12 Sudeste 0 -- -- 69
2019-10-09 14:00:00 18.5 3 Sur 10 Sudeste 0 -- -- 70
2019-10-09 13:00:00 16.6 4 Oeste 8 Oeste 0 -- -- 73
2019-10-09 12:00:00 15.7 4 Oeste 9 Noroeste 0 -- -- 80
2019-10-09 11:00:00 14.5 0 Calma 6 Sur 0 -- -- 95
2019-10-09 10:00:00 13.8 2 Sudoeste 7 Sur 0 -- -- 99
2019-10-09 09:00:00 13.2 0 Calma 4 Noroeste 0.2 -- -- 98
2019-10-09 08:00:00 13.2 0 Calma 3 Noroeste 0 -- -- 98
2019-10-09 07:00:00 13.2 0 Calma 4 Norte 0 -- -- 98
2019-10-09 06:00:00 13.2 0 Calma 9 Noroeste 0.4 -- -- 97
2019-10-09 05:00:00 13.4 3 Norte 10 Noroeste 1 -- -- 97
2019-10-09 04:00:00 13.6 0 Calma 4 Norte 0 -- -- 97
2019-10-09 03:00:00 13.7 0 Calma 5 Sur 0.2 -- -- 96
2019-10-09 02:00:00 13.9 2 Sudeste 8 Sur 0.6 -- -- 95
2019-10-09 01:00:00 14.3 4 Sudoeste 10 Sudeste 0.2 -- -- 94
2019-10-09 00:00:00 14.8 4 Sudoeste 8 Sudoeste 0 -- -- 94
2019-10-08 23:00:00 15.3 2 Sudoeste 7 Sudoeste 0.2 -- -- 94
2019-10-08 22:00:00 15.7 2 Sur 22 Sudeste 0.2 -- -- 92
2019-10-08 21:00:00 16.6 4 Sudoeste 19 Sudeste 0.2 -- -- 91
2019-10-08 20:00:00 17.9 5 Sudoeste 16 Nordeste 0.4 -- -- 88
2019-10-08 19:00:00 20.2 6 Sudeste 13 Este 0 -- -- 80
2019-10-08 18:00:00 22.4 5 Sudeste 22 Sudeste 0 -- -- 66
2019-10-08 17:00:00 27.1 6 Sudeste 18 Sudeste 0 -- -- 48
2019-10-08 16:00:00 26.9 7 Sudeste 19 Sudeste 0 -- -- 49
2019-10-08 15:00:00 26.5 4 Sudeste 15 Sudeste 0 -- -- 42
2019-10-08 14:00:00 25.9 2 Nordeste 9 Noroeste 0 -- -- 39
2019-10-08 13:00:00 23.8 4 Noroeste 11 Noroeste 0 -- -- 38
2019-10-08 12:00:00 20.8 0 Calma 5 Oeste 0 -- -- 48
2019-10-08 11:00:00 15.8 0 Calma 12 Sur 0 -- -- 70
2019-10-08 10:00:00 10.3 2 Sudoeste 8 Sur 0 -- -- 88
2019-10-08 09:00:00 8.5 0 Calma 5 Sur 0 -- -- 88
2019-10-08 08:00:00 8.4 0 Calma 6 Sudoeste 0 -- -- 85
2019-10-08 07:00:00 8.6 0 Calma 6 Sudoeste 0 -- -- 82
2019-10-08 06:00:00 8.5 0 Calma 4 Sur 0 -- -- 83
2019-10-08 05:00:00 8.9 0 Calma 6 Sudoeste 0 -- -- 81
2019-10-08 04:00:00 9 2 Sur 7 Sur 0 -- -- 75
2019-10-08 03:00:00 9 2 Sudoeste 6 Sudoeste 0 -- -- 74
2019-10-08 02:00:00 9.3 0 Calma 7 Sur 0 -- -- 76
2019-10-08 01:00:00 9.7 0 Calma 8 Sur 0 -- -- 73
2019-10-08 00:00:00 10.3 2 Sur 9 Sudoeste 0 -- -- 73
2019-10-07 23:00:00 11.3 4 Sudoeste 7 Sudoeste 0 -- -- 74
2019-10-07 22:00:00 12.7 0 Calma 10 Sur 0 -- -- 69
2019-10-07 21:00:00 14.2 2 Sur 12 Sur 0 -- -- 67
2019-10-07 20:00:00 16.5 8 Sur 16 Sur 0 -- -- 62
2019-10-07 19:00:00 20 6 Sudoeste 12 Sur 0 -- -- 58
2019-10-07 18:00:00 24.5 3 Oeste 10 Oeste 0 -- -- 44
2019-10-07 17:00:00 26.1 4 Sudeste 12 Sudeste 0 -- -- 39
2019-10-07 16:00:00 25.4 4 Noroeste 8 Oeste 0 -- -- 27
2019-10-07 15:00:00 24.1 2 Noroeste 10 Norte 0 -- -- 28
2019-10-07 14:00:00 22.7 4 Norte 8 Norte 0 -- -- 39
2019-10-07 13:00:00 20.9 2 Norte 6 Oeste 0 -- -- 58
2019-10-07 12:00:00 17.3 4 Oeste 6 Oeste 0 -- -- 70
2019-10-07 11:00:00 13.5 0 Calma 7 Sur 0 -- -- 94
2019-10-07 10:00:00 10.5 4 Sudoeste 9 Sur 0 -- -- 99
2019-10-07 09:00:00 9.3 2 Sudoeste 5 Sur 0 -- -- 99
2019-10-07 08:00:00 8.4 0 Calma 9 Sur 0 -- -- 97
2019-10-07 07:00:00 8.4 2 Sur 8 Sur 0 -- -- 96
2019-10-07 06:00:00 9 0 Calma 8 Sur 0 -- -- 96
2019-10-07 05:00:00 9.9 3 Sur 8 Sur 0 -- -- 96
2019-10-07 04:00:00 10.7 4 Sur 8 Sur 0 -- -- 96
2019-10-07 03:00:00 11.4 2 Sur 6 Sur 0 -- -- 96
2019-10-07 02:00:00 12.3 3 Sur 8 Sur 0 -- -- 97
2019-10-07 01:00:00 13.2 0 Calma 7 Sur 0 -- -- 97
2019-10-07 00:00:00 13.4 0 Calma 6 Sur 0 -- -- 97
2019-10-06 23:00:00 13.6 0 Calma 5 Sur 0 -- -- 97
2019-10-06 22:00:00 13.6 0 Calma 6 Sur 0 -- -- 96
2019-10-06 21:00:00 13.8 0 Calma 8 Sur 0 -- -- 94
2019-10-06 20:00:00 15 0 Calma 7 Sur 0 -- -- 94
2019-10-06 19:00:00 15.5 2 Sudoeste 10 Sudeste 0 -- -- 93
2019-10-06 18:00:00 15.9 7 Este 19 Sudeste 0.2 -- -- 88
2019-10-06 17:00:00 16.6 0 Calma 7 Noroeste 0 -- -- 91
2019-10-06 16:00:00 16.1 0 Calma 9 Sudoeste 0 -- -- 92
2019-10-06 15:00:00 16 6 Sudoeste 11 Sudoeste 0.8 -- -- 92
2019-10-06 14:00:00 16.8 3 Nordeste 10 Noroeste 0.2 -- -- 86
2019-10-06 13:00:00 17.4 0 Calma 0 Calma 0 -- -- 83
2019-10-06 12:00:00 16.5 0 Calma 0 Calma 0 -- -- 85
2019-10-06 11:00:00 15.2 0 Calma 0 Calma 0 -- -- 92
2019-10-06 10:00:00 14.3 0 Calma 0 Calma 0 -- -- 97
2019-10-06 09:00:00 13.3 0 Calma 0 Calma 0 -- -- 97
2019-10-06 08:00:00 13.1 0 Calma 0 Calma 0 -- -- 97
2019-10-06 07:00:00 12.9 0 Calma 0 Calma 0 -- -- 96
2019-10-06 06:00:00 12.7 0 Calma 0 Calma 0 -- -- 96
2019-10-06 05:00:00 12.5 0 Calma 0 Calma 0 -- -- 94
2019-10-06 04:00:00 12.8 0 Calma 5 Sur 0 -- -- 93
2019-10-06 03:00:00 13.3 0 Calma 6 Sur 0 -- -- 91
2019-10-06 02:00:00 14.6 3 Sur 6 Sur 0 -- -- 89
2019-10-06 01:00:00 15.1 2 Sur 6 Norte 0 -- -- 88
2019-10-06 00:00:00 15.2 0 Calma 6 Sur 0 -- -- 88
2019-10-05 23:00:00 15.6 2 Sudoeste 8 Sudoeste 0 -- -- 86
2019-10-05 22:00:00 16 4 Sudoeste 12 Sudeste 0 -- -- 84
2019-10-05 21:00:00 16.4 0 Calma 9 Sudeste 0 -- -- 81
2019-10-05 20:00:00 16.8 4 Este 14 Este 0 -- -- 79
2019-10-05 19:00:00 18 4 Nordeste 14 Nordeste 0 -- -- 77
2019-10-05 18:00:00 20.3 4 Sudeste 14 Sudeste 0 -- -- 68
2019-10-05 17:00:00 20.5 4 Este 13 Sur 0 -- -- 66
2019-10-05 16:00:00 20.8 4 Sudeste 14 Sudeste 0 -- -- 66
2019-10-05 15:00:00 22.6 6 Este 14 Nordeste 0 -- -- 58
2019-10-05 14:00:00 20.9 2 Nordeste 11 Oeste 0 -- -- 64
2019-10-05 13:00:00 20.4 0 Calma 10 Noroeste 0 -- -- 65
2019-10-05 12:00:00 19.5 0 Calma 0 Calma 0 -- -- 69
2019-10-05 11:00:00 16.4 0 Calma 0 Calma 0 -- -- 96
2019-10-05 10:00:00 14.4 0 Calma -- -- 0 -- -- 99
2019-10-05 09:00:00 13.8 0 Calma -- -- 0 -- -- 99
2019-10-05 08:00:00 13.7 0 Calma -- -- 0 -- -- 98
2019-10-05 07:00:00 13.7 0 Calma 0 Calma 0 -- -- 98
2019-10-05 06:00:00 13.8 0 Calma 0 Calma 0 -- -- 98
2019-10-05 05:00:00 13.8 0 Calma -- -- 0 -- -- 98
2019-10-05 04:00:00 14.1 0 Calma -- -- 0 -- -- 98
2019-10-05 03:00:00 14.3 0 Calma -- -- 0 -- -- 97
2019-10-05 02:00:00 14.4 0 Calma -- -- 0 -- -- 97
2019-10-05 01:00:00 14.5 0 Calma 4 Sudeste 0 -- -- 96
2019-10-05 00:00:00 14.6 0 Calma 5 Sur 0 -- -- 96
2019-10-04 23:00:00 14.7 0 Calma 6 Sudeste 0 -- -- 95
2019-10-04 22:00:00 14.9 2 Sudeste 7 Oeste 0 -- -- 94
2019-10-04 21:00:00 15.1 2 Sudoeste 8 Sudoeste 0 -- -- 91
2019-10-04 20:00:00 15.6 3 Sudoeste 6 Sudoeste 0 -- -- 93
2019-10-04 19:00:00 15.8 0 Calma 7 Este 0 -- -- 91
2019-10-04 18:00:00 16.5 0 Calma 8 Oeste 0 -- -- 90
2019-10-04 17:00:00 17.1 0 Calma 12 Sur 0 -- -- 85
2019-10-04 16:00:00 18 4 Este 14 Nordeste 0 -- -- 83
2019-10-04 15:00:00 20 5 Este 15 Este 0 -- -- 77
2019-10-04 14:00:00 18.7 2 Nordeste 7 Este 0 -- -- 83
2019-10-04 13:00:00 17.9 2 Nordeste 13 Sudoeste 0 -- -- 92
2019-10-04 12:00:00 15.4 0 Calma 5 Sudoeste 0 -- -- 99
2019-10-04 11:00:00 14.4 0 Calma 0 Calma 0.2 -- -- 99
2019-10-04 10:00:00 13.6 0 Calma 3 Sur 0 -- -- 99
2019-10-04 09:00:00 13.1 0 Calma 9 Sudeste 0 -- -- 98
2019-10-04 08:00:00 12.5 3 Sur 9 Sur 0 -- -- 98
2019-10-04 07:00:00 11.9 0 Calma -- -- 0 -- -- 97
2019-10-04 06:00:00 12.3 0 Calma -- -- 0 -- -- 96
2019-10-04 05:00:00 13 0 Calma -- -- 0 -- -- 96
2019-10-04 04:00:00 13.5 0 Calma -- -- 0 -- -- 96
2019-10-04 03:00:00 13.6 0 Calma -- -- 0 -- -- 95
2019-10-04 02:00:00 13.6 0 Calma -- -- 0 -- -- 95
2019-10-04 01:00:00 13.4 0 Calma -- -- 0 -- -- 94
2019-10-04 00:00:00 13.1 0 Calma -- -- 0 -- -- 93
2019-10-03 23:00:00 12.6 0 Calma -- -- 0 -- -- 90
2019-10-03 22:00:00 13.5 0 Calma 7 Sur 0 -- -- 86
2019-10-03 21:00:00 14.6 3 Sur 12 Sur 0 -- -- 82
2019-10-03 20:00:00 16.2 6 Sur 13 Sur 0 -- -- 78
2019-10-03 19:00:00 20.7 5 Sudoeste 11 Oeste 0 -- -- 63
2019-10-03 18:00:00 24.9 3 Sudeste 11 Sudeste 0 -- -- 50
2019-10-03 17:00:00 24.6 4 Este 12 Sudeste 0 -- -- 48
2019-10-03 16:00:00 24.4 4 Nordeste 17 Norte 0 -- -- 51
2019-10-03 15:00:00 23.6 5 Norte 18 Noroeste 0 -- -- 52
2019-10-03 14:00:00 22.3 5 Noroeste 10 Noroeste 0 -- -- 51
2019-10-03 13:00:00 20 5 Oeste 8 Noroeste 0.2 -- -- 59
2019-10-03 12:00:00 17.5 3 Norte 6 Noroeste 0 -- -- 71
2019-10-03 11:00:00 13.3 2 Sudoeste 10 Sur 0 -- -- 99
2019-10-03 10:00:00 10.6 3 Sudoeste 6 Sur 0 -- -- 99
2019-10-03 09:00:00 9.5 3 Sudoeste 6 Sudoeste 0 -- -- 98
2019-10-03 08:00:00 9.8 2 Sudoeste 6 Sur 0 -- -- 97
2019-10-03 07:00:00 10.7 3 Sudoeste 7 Sur 0 -- -- 98
2019-10-03 06:00:00 12.1 0 Calma 6 Sur 0 -- -- 98
2019-10-03 05:00:00 12.7 0 Calma 5 Sur 0 -- -- 98
2019-10-03 04:00:00 12.7 0 Calma -- -- 0 -- -- 98
2019-10-03 03:00:00 12.7 0 Calma 5 Oeste 0 -- -- 98
2019-10-03 02:00:00 12.6 0 Calma 6 Sudeste 0 -- -- 98
2019-10-03 01:00:00 12.5 0 Calma -- -- 0 -- -- 97
2019-10-03 00:00:00 12.6 0 Calma 8 Sur 0 -- -- 96
2019-10-02 23:00:00 13.4 0 Calma 0 Calma 0 -- -- 95
2019-10-02 22:00:00 13.9 0 Calma -- -- 0 -- -- 96
2019-10-02 21:00:00 14.3 0 Calma -- -- 0.4 -- -- 94
2019-10-02 20:00:00 14.8 0 Calma 5 Este 0.8 -- -- 93
2019-10-02 19:00:00 15.7 0 Calma 14 Norte 0 -- -- 90
2019-10-02 18:00:00 16.1 3 Norte 19 Nordeste 0 -- -- 86
2019-10-02 17:00:00 16.7 0 Calma 19 Norte 0 -- -- 80
2019-10-02 16:00:00 16.3 8 Norte 26 Norte 0 -- -- 80
2019-10-02 15:00:00 16 7 Nordeste 18 Noroeste 0 -- -- 83
2019-10-02 14:00:00 16.7 5 Noroeste 19 Noroeste 0 -- -- 82
2019-10-02 13:00:00 14.7 2 Norte 13 Noroeste 1 -- -- 94
2019-10-02 12:00:00 14.4 0 Calma 5 Sudoeste 0.4 -- -- 94
2019-10-02 11:00:00 14.1 3 Nordeste 14 Norte 0 -- -- 92
2019-10-02 10:00:00 14.1 4 Norte 14 Nordeste 0 -- -- 88
2019-10-02 09:00:00 13.9 2 Norte 14 Norte 0 -- -- 89
2019-10-02 08:00:00 14.1 4 Noroeste 18 Norte 0 -- -- 86
2019-10-02 07:00:00 14.7 6 Oeste 21 Norte 0 -- -- 81
2019-10-02 06:00:00 14.5 5 Nordeste 14 Norte 0 -- -- 82
2019-10-02 05:00:00 14.3 4 Sudoeste 21 Sur 0 -- -- 84
2019-10-02 04:00:00 14.7 5 Nordeste 21 Nordeste 0 -- -- 80
2019-10-02 03:00:00 14.5 3 Noroeste 16 Noroeste 0 -- -- 87
2019-10-02 02:00:00 15.5 6 Nordeste 24 Noroeste 0 -- -- 83
2019-10-02 01:00:00 16.3 8 Norte 27 Norte 0 -- -- 79
2019-10-02 00:00:00 16.9 5 Oeste 14 Oeste 0 -- -- 78
2019-10-01 23:00:00 17 3 Norte 15 Noroeste 0 -- -- 79
2019-10-01 22:00:00 17.1 6 Norte 22 Norte 0 -- -- 78
2019-10-01 21:00:00 17 3 Sudoeste 9 Sur 0 -- -- 85
2019-10-01 20:00:00 17.5 3 Sudoeste 10 Sur 0 -- -- 81
2019-10-01 19:00:00 18.1 2 Sur 11 Este 0 -- -- 79
2019-10-01 18:00:00 18.6 3 Sur 18 Sur 0 -- -- 78
2019-10-01 17:00:00 19.8 7 Sur 16 Sudeste 0 -- -- 75
2019-10-01 16:00:00 20.8 7 Sur 22 Sur 0 -- -- 70
2019-10-01 15:00:00 22.7 5 Sur 16 Sudeste 0 -- -- 67
2019-10-01 14:00:00 21.9 4 Sudeste 13 Este 0 -- -- 73
2019-10-01 13:00:00 21.7 4 Sudeste 12 Norte 0 -- -- 70
2019-10-01 12:00:00 21.6 4 Norte 10 Noroeste 0 -- -- 72
2019-10-01 11:00:00 18.9 0 Calma 6 Sur 0 -- -- 96
2019-10-01 10:00:00 16.1 3 Sudoeste 7 Sur 0 -- -- 99
2019-10-01 09:00:00 13.9 0 Calma 8 Sudeste 0 -- -- 98
2019-10-01 08:00:00 13.8 3 Sur 12 Sur 0 -- -- 98
2019-10-01 07:00:00 13.3 2 Sur 8 Norte 0 -- -- 97
2019-10-01 06:00:00 13.4 0 Calma 3 Sur 0 -- -- 96
2019-10-01 05:00:00 13.7 0 Calma 8 Sur 0 -- -- 96
2019-10-01 04:00:00 14.2 2 Sudoeste 5 Sudoeste 0 -- -- 95
2019-10-01 03:00:00 14.5 0 Calma 6 Sudoeste 0 -- -- 94
2019-10-01 02:00:00 14.9 0 Calma 6 Sur 0 -- -- 93
2019-10-01 01:00:00 15.4 0 Calma 5 Sudoeste 0 -- -- 91
2019-10-01 00:00:00 15.8 3 Sudoeste 8 Sur 0 -- -- 90
2019-09-30 23:00:00 16.5 2 Sur 9 Sur 0 -- -- 87
2019-09-30 22:00:00 17.8 0 Calma 15 Sur 0 -- -- 82
2019-09-30 21:00:00 18.9 5 Sudoeste 14 Sur 0 -- -- 79
2019-09-30 20:00:00 20.7 6 Sur 14 Sudoeste 0 -- -- 73
2019-09-30 19:00:00 24.8 6 Sudoeste 10 Sudoeste 0 -- -- 59
2019-09-30 18:00:00 27.9 3 Sudoeste 8 Sudoeste 0 -- -- 53
2019-09-30 17:00:00 29.2 6 Oeste 9 Oeste 0 -- -- 43
2019-09-30 16:00:00 28.9 3 Sur 9 Noroeste 0 -- -- 41
2019-09-30 15:00:00 27.6 4 Norte 11 Noroeste 0 -- -- 47
2019-09-30 14:00:00 26.4 3 Noroeste 8 Oeste 0 -- -- 52
2019-09-30 13:00:00 24.8 4 Noroeste 7 Noroeste 0 -- -- 55
2019-09-30 12:00:00 22 4 Oeste 7 Oeste 0 -- -- 66
2019-09-30 11:00:00 17.8 0 Calma 6 Sudoeste 0 -- -- 91
2019-09-30 10:00:00 14.2 0 Calma 8 Sur 0 -- -- 98
2019-09-30 09:00:00 12.7 0 Calma 5 Sudeste 0 -- -- 96
2019-09-30 08:00:00 12.9 2 Sur 6 Sur 0 -- -- 95
2019-09-30 07:00:00 13.3 3 Sudoeste 6 Sur 0 -- -- 94
2019-09-30 06:00:00 13.9 0 Calma 6 Sur 0 -- -- 93
2019-09-30 05:00:00 14.6 3 Sudoeste 9 Sur 0 -- -- 92
2019-09-30 04:00:00 15.5 0 Calma 9 Sur 0 -- -- 90
2019-09-30 03:00:00 16.8 6 Sur 12 Sur 0 -- -- 86
2019-09-30 02:00:00 17.5 5 Sudoeste 10 Sur 0 -- -- 85
2019-09-30 01:00:00 18.2 0 Calma 7 Sudeste 0 -- -- 85
2019-09-30 00:00:00 18.5 3 Sur 8 Sur 0 -- -- 82
2019-09-29 23:00:00 17.9 4 Sudoeste 9 Sudoeste 0 -- -- 80
2019-09-29 22:00:00 16.8 4 Sudoeste 12 Sudoeste 0 -- -- 76
2019-09-29 21:00:00 17.4 3 Sur 14 Sudoeste 0 -- -- 67
2019-09-29 20:00:00 19.8 5 Sudoeste 15 Sur 0 -- -- 57
2019-09-29 19:00:00 25.4 6 Sudoeste 13 Sur 0 -- -- 39
2019-09-29 18:00:00 27.8 5 Sudeste 17 Este 0 -- -- 31
2019-09-29 17:00:00 30 3 Noroeste 14 Sudeste 0 -- -- 31
2019-09-29 16:00:00 30.8 6 Sudeste 21 Sudeste 0 -- -- 31
2019-09-29 15:00:00 30.7 4 Norte 12 Noroeste 0 -- -- 24
2019-09-29 14:00:00 29.4 3 Este 12 Este 0 -- -- 29
2019-09-29 13:00:00 28.1 3 Nordeste 23 Sur 0 -- -- 30
2019-09-29 12:00:00 25.9 7 Oeste 25 Oeste 0 -- -- 34
2019-09-29 11:00:00 22.6 4 Oeste 19 Sudoeste 0 -- -- 43
2019-09-29 10:00:00 17.9 3 Este 15 Sudoeste 0 -- -- 55
2019-09-29 09:00:00 13.9 4 Oeste 12 Nordeste 0 -- -- 71
2019-09-29 08:00:00 13.1 3 Sudeste 26 Sudoeste 0 -- -- 77
2019-09-29 07:00:00 12.2 4 Oeste 13 Sudoeste 0 -- -- 85
2019-09-29 06:00:00 11.4 4 Sudeste 12 Sudeste 0 -- -- 95
2019-09-29 05:00:00 11.6 3 Este 12 Oeste 0 -- -- 97
2019-09-29 04:00:00 11.7 4 Sudeste 13 Sudoeste 0 -- -- 97
2019-09-29 03:00:00 12.1 2 Sudeste 10 Sur 0 -- -- 97
2019-09-29 02:00:00 12.6 2 Sudoeste 12 Nordeste 0 -- -- 96
2019-09-29 01:00:00 12.9 3 Sur 8 Sudeste 0 -- -- 94
2019-09-29 00:00:00 13.6 0 Calma 8 Sur 0 -- -- 92
2019-09-28 23:00:00 14.6 0 Calma 8 Sudoeste 0 -- -- 90
2019-09-28 22:00:00 16 3 Sur 9 Sur 0 -- -- 87
2019-09-28 21:00:00 17.7 2 Sur 9 Sur 0 -- -- 83
2019-09-28 20:00:00 20.7 0 Calma 8 Sudeste 0 -- -- 74
2019-09-28 19:00:00 24.9 3 Sudeste 10 Oeste 0 -- -- 61
2019-09-28 18:00:00 27.9 3 Sur 11 Sudeste 0 -- -- 53
2019-09-28 17:00:00 27.8 3 Sudeste 10 Sur 0 -- -- 47
2019-09-28 16:00:00 26.9 3 Sudeste 13 Sur 0 -- -- 54
2019-09-28 15:00:00 25.3 3 Sudeste 9 Oeste 0 -- -- 53
2019-09-28 14:00:00 23.3 4 Noroeste 11 Norte 0 -- -- 61
2019-09-28 13:00:00 21.1 0 Calma 9 Noroeste 0 -- -- 72
2019-09-28 12:00:00 18.3 0 Calma 0 Calma 0 -- -- 75
2019-09-28 11:00:00 16.7 0 Calma 0 Calma 0 -- -- 84
2019-09-28 10:00:00 15.5 0 Calma -- -- 0 -- -- 94
2019-09-28 09:00:00 14.8 0 Calma 0 Calma 0 -- -- 96
2019-09-28 08:00:00 14.6 0 Calma 0 Calma 0 -- -- 95
2019-09-28 07:00:00 14.7 0 Calma 4 Sur 0 -- -- 94
2019-09-28 06:00:00 14.8 3 Sur 6 Sur 0 -- -- 94
2019-09-28 05:00:00 14.8 3 Sur 7 Sudoeste 0 -- -- 94
2019-09-28 04:00:00 14.8 0 Calma -- -- 0 -- -- 94
2019-09-28 03:00:00 14.9 0 Calma 4 Sur 0 -- -- 94
2019-09-28 02:00:00 15 0 Calma 5 Sur 0 -- -- 93
2019-09-28 01:00:00 15.1 0 Calma 6 Sur 0 -- -- 92
2019-09-28 00:00:00 15.1 3 Sur 8 Sudeste 0 -- -- 90
2019-09-27 23:00:00 15.3 0 Calma 12 Sur 0 -- -- 89
2019-09-27 22:00:00 16 4 Oeste 15 Este 0 -- -- 88
2019-09-27 21:00:00 16.9 5 Sudoeste 15 Sudeste 0 -- -- 87
2019-09-27 20:00:00 18.2 4 Sur 15 Sudeste 0 -- -- 77
2019-09-27 19:00:00 19.9 4 Este 14 Este 0 -- -- 74
2019-09-27 18:00:00 22.5 6 Sur 14 Sudeste 0 -- -- 64
2019-09-27 17:00:00 22.7 5 Sudeste 16 Nordeste 0 -- -- 65
2019-09-27 16:00:00 25.7 6 Sudeste 17 Sudeste 0 -- -- 55
2019-09-27 15:00:00 24.5 4 Este 17 Sudeste 0 -- -- 56
2019-09-27 14:00:00 24.3 5 Sudoeste 16 Sur 0 -- -- 61
2019-09-27 13:00:00 23.7 4 Sur 16 Sudeste 0 -- -- 63
2019-09-27 12:00:00 21.8 4 Norte 8 Norte 0 -- -- 69
2019-09-27 11:00:00 17.1 3 Sudoeste 8 Sudoeste 0 -- -- 83
2019-09-27 10:00:00 13.4 3 Sudoeste 7 Sudoeste 0 -- -- 97
2019-09-27 09:00:00 12.6 2 Sur 6 Sur 0 -- -- 95
2019-09-27 08:00:00 13.2 0 Calma 8 Sur 0 -- -- 95
2019-09-27 07:00:00 13.3 0 Calma 9 Sur 0 -- -- 94
2019-09-27 06:00:00 13.4 5 Sudoeste 9 Sur 0 -- -- 92
2019-09-27 05:00:00 13.8 6 Sudoeste 13 Sur 0 -- -- 91
2019-09-27 04:00:00 14.5 5 Sudoeste 11 Sudoeste 0 -- -- 90
2019-09-27 03:00:00 15.1 3 Sudoeste 8 Sudoeste 0 -- -- 94
2019-09-27 02:00:00 14.6 0 Calma 4 Sudoeste 0 -- -- 94
2019-09-27 01:00:00 14.3 0 Calma 6 Sur 0 -- -- 93
2019-09-27 00:00:00 14.8 0 Calma 5 Sudeste 0 -- -- 89
2019-09-26 23:00:00 16.6 0 Calma 10 Sur 0 -- -- 85
2019-09-26 22:00:00 17.8 3 Sur 7 Sur 0 -- -- 82
2019-09-26 21:00:00 18.3 3 Sur 7 Sur 0 -- -- 79
2019-09-26 20:00:00 19.2 3 Sudoeste 10 Este 0 -- -- 75
2019-09-26 19:00:00 21 3 Este 15 Sur 0 -- -- 71
2019-09-26 18:00:00 24.4 6 Este 17 Nordeste 0 -- -- 59
2019-09-26 17:00:00 26 6 Sudeste 17 Sudeste 0 -- -- 55
2019-09-26 16:00:00 26.3 4 Sur 13 Sudeste 0 -- -- 53
2019-09-26 15:00:00 25 4 Sudeste 12 Sur 0 -- -- 57
2019-09-26 14:00:00 23.9 3 Sudeste 13 Sudoeste 0 -- -- 58
2019-09-26 13:00:00 23.1 3 Sur 8 Sudeste 0 -- -- 61
2019-09-26 12:00:00 20.5 3 Norte 6 Norte 0 -- -- 67
2019-09-26 11:00:00 15.9 0 Calma 3 Sudoeste 0 -- -- 97
2019-09-26 10:00:00 12.8 0 Calma 4 Sur 0 -- -- 98
2019-09-26 09:00:00 11.6 0 Calma 5 Sudoeste 0 -- -- 97
2019-09-26 08:00:00 11.4 0 Calma 5 Sur 0 -- -- 96
2019-09-26 07:00:00 11.8 0 Calma 5 Sudoeste 0 -- -- 95
2019-09-26 06:00:00 12.4 2 Sur 6 Sudoeste 0 -- -- 94
2019-09-26 05:00:00 13.2 0 Calma 8 Sur 0 -- -- 93
2019-09-26 04:00:00 14.1 0 Calma -- -- 0 -- -- 93
2019-09-26 03:00:00 14.9 0 Calma 3 Sudoeste 0 -- -- 93
2019-09-26 02:00:00 15.1 0 Calma 5 Sur 0 -- -- 92
2019-09-26 01:00:00 15.2 0 Calma 6 Sudeste 0 -- -- 91
2019-09-26 00:00:00 15.2 0 Calma 9 Sur 0 -- -- 89
2019-09-25 23:00:00 15.8 6 Sur 9 Sur 0 -- -- 85
2019-09-25 22:00:00 16.4 4 Sudoeste 8 Sur 0 -- -- 83
2019-09-25 21:00:00 17.2 0 Calma 8 Sur 0 -- -- 78
2019-09-25 20:00:00 18.2 4 Sur 8 Sudoeste 0 -- -- 72
2019-09-25 19:00:00 19.5 3 Sudoeste 9 Sur 0 -- -- 66
2019-09-25 18:00:00 21.8 3 Sur 12 Sur 0 -- -- 59
2019-09-25 17:00:00 21.7 5 Sur 12 Sudeste 0 -- -- 61
2019-09-25 16:00:00 21.2 5 Nordeste 15 Este 0 -- -- 62
2019-09-25 15:00:00 22.3 3 Noroeste 10 Nordeste 0 -- -- 50
2019-09-25 14:00:00 23.1 3 Este 11 Norte 0 -- -- 54
2019-09-25 13:00:00 21.1 3 Oeste 10 Nordeste 0 -- -- 64
2019-09-25 12:00:00 18.9 4 Noroeste 8 Oeste 0 -- -- 63
2019-09-25 11:00:00 15.6 0 Calma 6 Sudoeste 0 -- -- 92
2019-09-25 10:00:00 13.4 0 Calma 5 Sudeste 0 -- -- 99
2019-09-25 09:00:00 12.1 2 Sur 6 Sur 0 -- -- 97
2019-09-25 08:00:00 12.2 0 Calma 5 Sur 0 -- -- 96
2019-09-25 07:00:00 13.3 0 Calma 8 Sur 0 -- -- 96
2019-09-25 06:00:00 13.8 0 Calma 7 Sudeste 0 -- -- 96
2019-09-25 05:00:00 14 0 Calma 5 Sur 0 -- -- 96
2019-09-25 04:00:00 14.3 0 Calma 9 Sur 0 -- -- 96
2019-09-25 03:00:00 14.5 3 Sur 9 Sur 0 -- -- 96
2019-09-25 02:00:00 14.7 2 Sudoeste 8 Sur 0 -- -- 96
2019-09-25 01:00:00 15 2 Sudeste 8 Sur 0 -- -- 95
2019-09-25 00:00:00 15.2 0 Calma 6 Sudeste 0.2 -- -- 95
2019-09-24 23:00:00 15.4 3 Sur 7 Sudeste 0.4 -- -- 94
2019-09-24 22:00:00 15.9 0 Calma 8 Sudoeste 1.2 -- -- 91
2019-09-24 21:00:00 16.8 2 Sudoeste 12 Sur 0 -- -- 85
2019-09-24 20:00:00 17.8 3 Sudoeste 13 Sur 0 -- -- 75
2019-09-24 19:00:00 18.7 4 Sur 10 Sur 0 -- -- 70
2019-09-24 18:00:00 19.8 4 Sur 14 Sudoeste 0 -- -- 70
2019-09-24 17:00:00 19.5 6 Sur 14 Sudeste 0 -- -- 73
2019-09-24 16:00:00 20.1 6 Sur 13 Sudeste 0 -- -- 70
2019-09-24 15:00:00 21.6 4 Sudeste 17 Sudeste 0 -- -- 68
2019-09-24 14:00:00 24.4 5 Oeste 14 Oeste 0 -- -- 53
2019-09-24 13:00:00 23.6 6 Oeste 23 Noroeste 0 -- -- 56
2019-09-24 12:00:00 24.6 4 Nordeste 15 Norte 0 -- -- 53
2019-09-24 11:00:00 21.7 5 Nordeste 23 Norte 0 -- -- 56
2019-09-24 10:00:00 20.5 4 Noroeste 23 Sudoeste 0 -- -- 53
2019-09-24 09:00:00 20.7 9 Oeste 29 Noroeste 0 -- -- 46
2019-09-24 08:00:00 21 13 Oeste 28 Oeste 0 -- -- 43
2019-09-24 07:00:00 21.6 8 Nordeste 37 Oeste 0 -- -- 49
2019-09-24 06:00:00 21.7 10 Oeste 29 Sudoeste 0 -- -- 47
2019-09-24 05:00:00 21.5 16 Oeste 39 Oeste 0 -- -- 46
2019-09-24 04:00:00 21.4 10 Oeste 34 Oeste 0 -- -- 48
2019-09-24 03:00:00 21.8 9 Noroeste 47 Noroeste 0 -- -- 46
2019-09-24 02:00:00 20.2 6 Sudoeste 26 Sur 0 -- -- 51
2019-09-24 01:00:00 17.9 4 Oeste 15 Oeste 0 -- -- 66
2019-09-24 00:00:00 20 3 Sur 30 Sudoeste 0 -- -- 61
2019-09-23 23:00:00 18.8 3 Este 19 Sur 0 -- -- 64
2019-09-23 22:00:00 17 3 Sudeste 12 Sur 0 -- -- 81
2019-09-23 21:00:00 17.6 4 Sudoeste 10 Oeste 0 -- -- 80
2019-09-23 20:00:00 19.5 4 Sur 11 Sudoeste 0 -- -- 70
2019-09-23 19:00:00 21.2 2 Sudoeste 9 Oeste 0 -- -- 64
2019-09-23 18:00:00 21.4 0 Calma 16 Nordeste 0 -- -- 57
2019-09-23 17:00:00 22.4 4 Nordeste 19 Norte 0 -- -- 52
2019-09-23 16:00:00 22.4 4 Nordeste 22 Norte 0 -- -- 49
2019-09-23 15:00:00 21.8 3 Oeste 13 Nordeste 0 -- -- 49
2019-09-23 14:00:00 21.1 4 Nordeste 17 Este 0 -- -- 53
2019-09-23 13:00:00 20.1 5 Este 18 Sudoeste 0 -- -- 56
2019-09-23 12:00:00 17.9 4 Sudeste 11 Oeste 0 -- -- 70
2019-09-23 11:00:00 15.9 0 Calma 7 Noroeste 0 -- -- 89
2019-09-23 10:00:00 13.4 0 Calma 6 Sudoeste 0 -- -- 99
2019-09-23 09:00:00 11.6 0 Calma 5 Sudoeste 0 -- -- 99
2019-09-23 08:00:00 10.8 0 Calma 6 Sur 0 -- -- 98
2019-09-23 07:00:00 10.7 0 Calma 3 Sur 0 -- -- 97
2019-09-23 06:00:00 10.8 3 Sur 7 Sur 0 -- -- 97
2019-09-23 05:00:00 10.9 0 Calma 6 Sur 0 -- -- 96
2019-09-23 04:00:00 11.1 0 Calma 5 Sudoeste 0 -- -- 95
2019-09-23 03:00:00 11.8 0 Calma 6 Sudoeste 0 -- -- 94
2019-09-23 02:00:00 12.6 2 Sur 5 Sudoeste 0 -- -- 93
2019-09-23 01:00:00 13.5 0 Calma 5 Sur 0 -- -- 93
2019-09-23 00:00:00 14.1 0 Calma 7 Sur 0 -- -- 91
2019-09-22 23:00:00 14.8 0 Calma -- -- 0 -- -- 91
2019-09-22 22:00:00 15.5 0 Calma 4 Sudoeste 0 -- -- 87
2019-09-22 21:00:00 16.2 3 Sur 6 Sur 0 -- -- 81
2019-09-22 20:00:00 17.5 0 Calma 9 Sur 0 -- -- 75
2019-09-22 19:00:00 18.4 2 Sudoeste 14 Sudoeste 0 -- -- 68
2019-09-22 18:00:00 20.1 4 Oeste 15 Sudeste 0 -- -- 65
2019-09-22 17:00:00 21.8 4 Nordeste 18 Este 0 -- -- 60
2019-09-22 16:00:00 24.9 4 Sur 11 Oeste 0 -- -- 46
2019-09-22 15:00:00 22.9 4 Sudeste 11 Noroeste 0 -- -- 54
2019-09-22 14:00:00 21.2 4 Este 12 Nordeste 0 -- -- 57
2019-09-22 13:00:00 20.6 3 Nordeste 13 Nordeste 0 -- -- 61
2019-09-22 12:00:00 19.8 3 Nordeste 12 Oeste 0 -- -- 77
2019-09-22 11:00:00 17.3 3 Nordeste 6 Nordeste 0 -- -- 96
2019-09-22 10:00:00 15.7 0 Calma -- -- 0 -- -- 98
2019-09-22 09:00:00 14.7 0 Calma -- -- 0 -- -- 97
2019-09-22 08:00:00 14.8 0 Calma 6 Este 0 -- -- 96
2019-09-22 07:00:00 15.4 3 Nordeste 9 Norte 2.2 -- -- 95
2019-09-22 06:00:00 15.8 2 Oeste 8 Sur 7 -- -- 93
2019-09-22 05:00:00 16.9 4 Sur 19 Este 4.6 -- -- 88
2019-09-22 04:00:00 20.4 3 Sur 21 Sur 0.2 -- -- 76
2019-09-22 03:00:00 21 3 Sur 24 Noroeste 0 -- -- 67
2019-09-22 02:00:00 21.9 10 Sudoeste 23 Sur 0 -- -- 58
2019-09-22 01:00:00 22.4 5 Oeste 33 Oeste 0 -- -- 58
2019-09-22 00:00:00 22.9 15 Oeste 44 Oeste 0 -- -- 55
2019-09-21 23:00:00 23 19 Oeste 49 Oeste 0 -- -- 55
2019-09-21 22:00:00 22.1 6 Noroeste 23 Noroeste 0 -- -- 57
2019-09-21 21:00:00 22.4 9 Oeste 42 Oeste 0 -- -- 57
2019-09-21 20:00:00 23 10 Oeste 34 Sudoeste 0 -- -- 55
2019-09-21 19:00:00 24.1 10 Sudoeste 37 Noroeste 0 -- -- 51
2019-09-21 18:00:00 25.3 16 Oeste 40 Oeste 0 -- -- 48
2019-09-21 17:00:00 23.9 7 Noroeste 29 Oeste 0 -- -- 54
2019-09-21 16:00:00 24.6 8 Oeste 37 Oeste 0 -- -- 53
2019-09-21 15:00:00 25.8 6 Sudoeste 34 Oeste 0 -- -- 49
2019-09-21 14:00:00 25.2 8 Sudoeste 29 Sudoeste 0 -- -- 50
2019-09-21 13:00:00 25.2 9 Oeste 30 Oeste 0 -- -- 49
2019-09-21 12:00:00 23 8 Sudoeste 34 Sudoeste 0 -- -- 60
2019-09-21 11:00:00 22 5 Sudoeste 28 Sudoeste 0 -- -- 66
2019-09-21 10:00:00 19.6 8 Sudoeste 22 Sudoeste 0 -- -- 74
2019-09-21 09:00:00 18 4 Nordeste 14 Norte 0 -- -- 81
2019-09-21 08:00:00 19.4 3 Este 30 Sur 0 -- -- 71
2019-09-21 07:00:00 20.3 8 Oeste 36 Sudoeste 0 -- -- 64
2019-09-21 06:00:00 20 14 Sudoeste 41 Sudoeste 0 -- -- 67
2019-09-21 05:00:00 19.5 10 Oeste 35 Sudoeste 0 -- -- 70
2019-09-21 04:00:00 19.5 14 Sudoeste 32 Sudoeste 0 -- -- 72
2019-09-21 03:00:00 19.9 10 Sudoeste 36 Sudoeste 0 -- -- 69
2019-09-21 02:00:00 19.2 14 Noroeste 33 Noroeste 0 -- -- 70
2019-09-21 01:00:00 15.8 5 Nordeste 16 Norte 0 -- -- 95
2019-09-21 00:00:00 16.6 5 Sudeste 36 Oeste 0.8 -- -- 89
2019-09-20 23:00:00 17.3 14 Oeste 33 Sudoeste 4.6 -- -- 81
2019-09-20 22:00:00 17.7 13 Oeste 38 Sudoeste 2.8 -- -- 86
2019-09-20 21:00:00 17.7 7 Sur 36 Noroeste 13.6 -- -- 91
2019-09-20 20:00:00 23.3 13 Norte 32 Noroeste 0 -- -- 58
2019-09-20 19:00:00 25.7 6 Sudoeste 20 Sur 0 -- -- 53
2019-09-20 18:00:00 26 6 Sur 29 Oeste 0 -- -- 53
2019-09-20 17:00:00 27.4 13 Sudoeste 39 Sudoeste 0 -- -- 49
2019-09-20 16:00:00 29 7 Sudoeste 30 Sudoeste 0 -- -- 47
2019-09-20 15:00:00 29.2 17 Sudoeste 36 Sudoeste 0 -- -- 44
2019-09-20 14:00:00 28.2 14 Sudoeste 40 Sudoeste 0 -- -- 47
2019-09-20 13:00:00 26.9 18 Sudoeste 41 Sudoeste 0 -- -- 52
2019-09-20 12:00:00 25.3 17 Sudoeste 32 Sudoeste 0 -- -- 56
2019-09-20 11:00:00 19.1 0 Calma 6 Sudoeste 0 -- -- 100
2019-09-20 10:00:00 16.1 0 Calma 9 Sur 0 -- -- 99
2019-09-20 09:00:00 14.3 3 Sur 8 Sur 0 -- -- 99
2019-09-20 08:00:00 13.6 0 Calma 0 Calma 0 -- -- 98
2019-09-20 07:00:00 13.5 0 Calma 0 Calma 0 -- -- 98
2019-09-20 06:00:00 13.4 0 Calma 0 Calma 0 -- -- 97
2019-09-20 05:00:00 13.4 0 Calma 0 Calma 0 -- -- 97
2019-09-20 04:00:00 13.6 0 Calma 0 Calma 0 -- -- 96
2019-09-20 03:00:00 13.9 0 Calma 0 Calma 0 -- -- 95
2019-09-20 02:00:00 14.3 0 Calma 0 Calma 0 -- -- 94
2019-09-20 01:00:00 14.8 0 Calma -- -- 0 -- -- 93
2019-09-20 00:00:00 15.2 0 Calma -- -- 0 -- -- 92
2019-09-19 23:00:00 15.7 0 Calma 3 Sudoeste 0 -- -- 89
2019-09-19 22:00:00 16.8 0 Calma 6 Sur 0 -- -- 86
2019-09-19 21:00:00 18.7 0 Calma 8 Sur 0 -- -- 79
2019-09-19 20:00:00 21.2 4 Sur 10 Sudeste 0 -- -- 67
2019-09-19 19:00:00 24.5 3 Sudeste 12 Sudeste 0 -- -- 59
2019-09-19 18:00:00 25.6 6 Este 15 Nordeste 0 -- -- 58
2019-09-19 17:00:00 26.2 4 Este 16 Nordeste 0 -- -- 56
2019-09-19 16:00:00 26.1 5 Este 13 Sur 0 -- -- 55
2019-09-19 15:00:00 24.7 3 Sudoeste 11 Sur 0 -- -- 60
2019-09-19 14:00:00 24.7 4 Oeste 9 Norte 0 -- -- 57
2019-09-19 13:00:00 22.8 4 Noroeste 9 Noroeste 0 -- -- 61
2019-09-19 12:00:00 21.5 3 Norte 7 Noroeste 0 -- -- 67
2019-09-19 11:00:00 18.3 0 Calma 6 Sudoeste 0 -- -- 83
2019-09-19 10:00:00 15.9 4 Sudoeste 9 Sur 0 -- -- 93
2019-09-19 09:00:00 14.9 2 Sudoeste 6 Sur 0 -- -- 96
2019-09-19 08:00:00 14.7 0 Calma 12 Sur 0 -- -- 97
2019-09-19 07:00:00 14.2 7 Sur 12 Sur 0 -- -- 97
2019-09-19 06:00:00 14.2 2 Sudoeste 9 Sur 0 -- -- 96
2019-09-19 05:00:00 14.4 4 Sudoeste 8 Sur 0 -- -- 96
2019-09-19 04:00:00 14.7 3 Sudoeste 9 Sur 0 -- -- 95
2019-09-19 03:00:00 15.7 4 Sur 9 Sudoeste 0 -- -- 96
2019-09-19 02:00:00 16.3 0 Calma 4 Sudoeste 0 -- -- 96
2019-09-19 01:00:00 16.5 0 Calma 4 Sudoeste 0 -- -- 95
2019-09-19 00:00:00 16.8 0 Calma 7 Sur 0 -- -- 93
2019-09-18 23:00:00 17.5 4 Sudoeste 8 Sur 0 -- -- 92
2019-09-18 22:00:00 18.3 0 Calma -- -- 0 -- -- 92
2019-09-18 21:00:00 18.9 0 Calma 5 Sudeste 0 -- -- 91
2019-09-18 20:00:00 19.5 0 Calma 6 Este 0 -- -- 87
2019-09-18 19:00:00 20.1 0 Calma -- -- 0 -- -- 85
2019-09-18 18:00:00 20.6 0 Calma 5 Norte 0 -- -- 85
2019-09-18 17:00:00 20.1 0 Calma 6 Este 0 -- -- 87
2019-09-18 16:00:00 20.6 0 Calma 6 Norte 0 -- -- 83
2019-09-18 15:00:00 21.1 0 Calma 5 Oeste 0 -- -- 84
2019-09-18 14:00:00 20.3 0 Calma 5 Noroeste 0.2 -- -- 87
2019-09-18 13:00:00 20 0 Calma 8 Norte 0 -- -- 87
2019-09-18 12:00:00 19.1 0 Calma 5 Norte 0 -- -- 90
2019-09-18 11:00:00 17.8 0 Calma 2 Sudeste 0 -- -- 96
2019-09-18 10:00:00 16.1 0 Calma 8 Sur 0 -- -- 98
2019-09-18 09:00:00 14.9 0 Calma 7 Sudoeste 0 -- -- 97
2019-09-18 08:00:00 14.8 0 Calma 6 Sur 0 -- -- 95
2019-09-18 07:00:00 15.3 2 Sur 8 Sur 0 -- -- 95
2019-09-18 06:00:00 15.9 2 Sur 9 Sur 0 -- -- 94
2019-09-18 05:00:00 16.6 2 Sur 12 Sudoeste 0 -- -- 94
2019-09-18 04:00:00 17 2 Sudoeste 6 Sudoeste 0 -- -- 94
2019-09-18 03:00:00 17.2 0 Calma 12 Sudoeste 0 -- -- 92
2019-09-18 02:00:00 17.2 6 Sudoeste 12 Sur 0 -- -- 93
2019-09-18 01:00:00 17.1 5 Sudoeste 11 Sur 0 -- -- 93
2019-09-18 00:00:00 17.1 2 Sur 7 Sur 0 -- -- 92
2019-09-17 23:00:00 17.9 2 Sur 8 Sur 0 -- -- 89
2019-09-17 22:00:00 19.2 3 Sudoeste 8 Sur 0 -- -- 86
2019-09-17 21:00:00 20.7 2 Sur 7 Sudeste 0 -- -- 80